Time;durP1;ratioP1;P1;durP2;ratioP2;P2;SDS_P1;SDS_P2;PMS_P1;PMS_P2;Temp;Humidity;BMP_temperature;BMP_pressure;BME280_temperature;BME280_humidity;BME280_pressure;Samples;Min_cycle;Max_cycle;Signal;HPM_P1;HPM_P2
2022/12/31 00:00:39;;;;;;;1999.90;356.67;;;10.30;99.90;;;;;;5045109;28;20217;-52
2022/12/31 00:03:09;;;;;;;1999.90;407.23;;;10.30;99.90;;;;;;5048695;28;20206;-51
2022/12/31 00:05:37;;;;;;;1304.57;196.70;;;10.30;99.90;;;;;;5051407;28;20268;-52
2022/12/31 00:08:05;;;;;;;1131.40;177.03;;;10.40;99.90;;;;;;5051358;28;20241;-53
2022/12/31 00:10:40;;;;;;;1999.90;384.37;;;10.40;99.90;;;;;;5052181;28;20205;-51
2022/12/31 00:13:08;;;;;;;1864.77;191.90;;;10.40;99.90;;;;;;5051593;28;20209;-52
2022/12/31 00:15:38;;;;;;;1999.90;563.83;;;10.40;99.90;;;;;;5052043;28;20236;-52
2022/12/31 00:18:07;;;;;;;1999.90;302.20;;;10.40;99.90;;;;;;5051303;28;20297;-52
2022/12/31 00:20:39;;;;;;;1999.90;415.33;;;10.50;99.90;;;;;;5051401;28;20256;-52
2022/12/31 00:23:08;;;;;;;1999.90;466.13;;;10.50;99.90;;;;;;5051515;28;20236;-52
2022/12/31 00:25:36;;;;;;;1999.90;465.73;;;10.50;99.90;;;;;;5051548;28;20668;-51
2022/12/31 00:28:05;;;;;;;1999.90;427.37;;;10.50;99.90;;;;;;5051178;28;20221;-50
2022/12/31 00:30:34;;;;;;;1784.43;248.77;;;10.60;99.90;;;;;;5051282;28;20297;-51
2022/12/31 00:33:04;;;;;;;1843.37;217.60;;;10.60;99.90;;;;;;5051338;28;20706;-51
2022/12/31 00:35:33;;;;;;;1767.93;252.97;;;10.70;99.90;;;;;;5051519;28;20303;-51
2022/12/31 00:38:01;;;;;;;1999.90;797.33;;;10.70;99.90;;;;;;5050917;28;20221;-52
2022/12/31 00:40:29;;;;;;;1999.90;446.73;;;10.60;99.90;;;;;;5051414;28;20271;-52
2022/12/31 00:42:57;;;;;;;1999.90;610.17;;;10.70;99.90;;;;;;5051377;28;20221;-52
2022/12/31 00:45:25;;;;;;;1999.90;446.80;;;10.70;99.90;;;;;;5051242;28;20233;-53
2022/12/31 00:47:53;;;;;;;1999.90;519.43;;;10.70;99.90;;;;;;5050655;28;20600;-52
2022/12/31 00:50:23;;;;;;;1999.90;523.87;;;10.70;99.90;;;;;;5050799;28;20263;-52
2022/12/31 00:52:51;;;;;;;1999.90;504.97;;;10.70;99.90;;;;;;5050921;28;20297;-52
2022/12/31 00:55:19;;;;;;;1999.90;480.90;;;10.70;99.90;;;;;;5050811;28;20278;-52
2022/12/31 00:57:47;;;;;;;1999.90;621.30;;;10.70;99.90;;;;;;5051026;28;20293;-52
2022/12/31 01:00:16;;;;;;;1999.90;462.83;;;10.70;99.90;;;;;;5050540;28;20560;-51
2022/12/31 01:02:44;;;;;;;1999.90;382.80;;;10.70;99.90;;;;;;5049425;28;20709;-51
2022/12/31 01:05:13;;;;;;;1999.90;374.40;;;10.70;99.90;;;;;;5050823;28;20253;-52
2022/12/31 01:07:42;;;;;;;1999.90;494.67;;;10.70;99.90;;;;;;5050874;28;20205;-52
2022/12/31 01:10:10;;;;;;;1999.90;302.30;;;10.80;99.90;;;;;;5050143;28;20202;-52
2022/12/31 01:12:38;;;;;;;1999.90;671.70;;;10.80;99.90;;;;;;5050846;28;20256;-52
2022/12/31 01:15:07;;;;;;;1999.90;377.50;;;10.80;99.90;;;;;;5050656;28;20665;-53
2022/12/31 01:17:35;;;;;;;1999.90;491.10;;;10.80;99.90;;;;;;5050687;28;20296;-50
2022/12/31 01:20:03;;;;;;;1999.90;533.83;;;10.80;99.90;;;;;;5050719;28;20206;-52
2022/12/31 01:22:32;;;;;;;1999.90;507.90;;;10.70;99.90;;;;;;5048819;28;20228;-52
2022/12/31 01:25:01;;;;;;;1999.90;446.07;;;10.80;99.90;;;;;;5050829;28;20848;-51
2022/12/31 01:27:29;;;;;;;1999.90;297.10;;;10.80;99.90;;;;;;5050731;28;20259;-52
2022/12/31 01:29:57;;;;;;;1999.90;763.37;;;10.80;99.90;;;;;;5050689;28;20251;-52
2022/12/31 01:32:26;;;;;;;1999.90;343.93;;;10.90;99.90;;;;;;5050249;28;20212;-51
2022/12/31 01:34:54;;;;;;;1999.90;295.87;;;10.90;99.90;;;;;;5050339;28;20316;-51
2022/12/31 01:37:22;;;;;;;1144.00;199.27;;;10.90;99.90;;;;;;5050445;28;20237;-51
2022/12/31 01:39:50;;;;;;;1999.90;537.97;;;10.90;99.90;;;;;;5050305;28;20675;-52
2022/12/31 01:42:19;;;;;;;1999.90;327.37;;;10.90;99.90;;;;;;5050418;28;20632;-52
2022/12/31 01:44:53;;;;;;;1999.90;634.37;;;10.90;99.90;;;;;;5049559;28;20261;-51
2022/12/31 01:47:33;;;;;;;1948.47;304.17;;;11.00;99.90;;;;;;5050119;28;20775;-52
2022/12/31 01:50:06;;;;;;;1999.90;489.53;;;11.00;99.90;;;;;;5050315;28;20252;-52
2022/12/31 01:52:37;;;;;;;1999.90;729.13;;;11.00;99.90;;;;;;5050035;28;20251;-52
2022/12/31 01:55:16;;;;;;;1999.90;399.60;;;11.00;99.90;;;;;;5050420;28;20310;-52
2022/12/31 01:57:49;;;;;;;1999.90;468.80;;;11.00;99.90;;;;;;5049221;28;20232;-52
2022/12/31 02:00:18;;;;;;;1999.90;647.37;;;11.00;99.90;;;;;;5049844;28;20667;-51
2022/12/31 02:02:46;;;;;;;1999.90;478.63;;;11.10;99.90;;;;;;5049763;28;20222;-52
2022/12/31 02:05:20;;;;;;;1999.90;515.33;;;11.10;99.90;;;;;;5049359;28;20225;-51
2022/12/31 02:07:49;;;;;;;1999.90;507.60;;;11.10;99.90;;;;;;5049758;28;20213;-52
2022/12/31 02:10:17;;;;;;;1999.90;409.90;;;11.20;99.90;;;;;;5050260;28;20259;-52
2022/12/31 02:12:47;;;;;;;1999.90;694.07;;;11.20;99.90;;;;;;5049502;28;20252;-51
2022/12/31 02:15:16;;;;;;;1999.90;619.77;;;11.20;99.90;;;;;;5049178;28;20761;-52
2022/12/31 02:17:50;;;;;;;1999.90;405.83;;;11.20;99.90;;;;;;5049724;28;20209;-51
2022/12/31 02:20:53;;;;;;;1999.90;379.03;;;11.20;99.90;;;;;;5049670;28;20998;-52
2022/12/31 02:23:47;;;;;;;1999.90;298.17;;;11.30;99.90;;;;;;5048342;28;20225;-52
2022/12/31 02:26:53;;;;;;;1999.90;475.80;;;11.20;99.90;;;;;;5049518;28;20271;-52
2022/12/31 02:29:58;;;;;;;1999.90;449.33;;;11.30;99.90;;;;;;5049653;28;20301;-52
2022/12/31 02:32:38;;;;;;;1999.90;397.97;;;11.30;99.90;;;;;;5038756;28;20288;-52
2022/12/31 02:35:10;;;;;;;1847.23;220.13;;;11.40;99.90;;;;;;5048952;28;20248;-52
2022/12/31 02:37:41;;;;;;;1999.90;643.80;;;11.40;99.90;;;;;;5049695;28;20237;-52
2022/12/31 02:40:13;;;;;;;1999.90;461.23;;;11.40;99.90;;;;;;5049515;28;20251;-52
2022/12/31 02:42:41;;;;;;;1999.90;426.10;;;11.50;99.90;;;;;;5049088;28;20279;-52
2022/12/31 02:45:12;;;;;;;1999.90;437.40;;;11.50;99.90;;;;;;5049393;28;20221;-53
2022/12/31 02:47:55;;;;;;;1999.90;343.00;;;11.40;99.90;;;;;;5049611;28;20206;-51
2022/12/31 02:50:34;;;;;;;1999.90;476.13;;;11.50;99.90;;;;;;5049289;28;20293;-52
2022/12/31 02:53:18;;;;;;;1999.90;641.03;;;11.50;99.90;;;;;;5036327;28;20239;-51
2022/12/31 02:55:55;;;;;;;1999.90;541.80;;;11.50;99.90;;;;;;5049331;28;20233;-52
2022/12/31 03:06:47;;;;;;;1999.90;394.40;;;11.60;99.90;;;;;;5036445;28;20243;-52
2022/12/31 03:09:15;;;;;;;1999.90;575.43;;;11.70;99.90;;;;;;5047737;28;20679;-51
2022/12/31 03:14:29;;;;;;;1999.90;655.57;;;11.70;99.90;;;;;;5048443;28;20259;-52
2022/12/31 03:16:57;;;;;;;1999.90;593.27;;;11.80;99.90;;;;;;5047067;28;20256;-52
2022/12/31 03:22:28;;;;;;;1999.90;528.10;;;11.90;99.90;;;;;;5048928;28;20255;-53
2022/12/31 03:27:45;;;;;;;1999.90;371.80;;;12.00;99.90;;;;;;5042183;28;20244;-52
2022/12/31 03:30:15;;;;;;;947.20;135.60;;;12.00;99.90;;;;;;5047786;28;20247;-52
2022/12/31 03:32:45;;;;;;;1614.17;254.50;;;12.00;99.90;;;;;;5048520;28;20213;-51
2022/12/31 03:35:16;;;;;;;1976.83;245.60;;;12.10;99.90;;;;;;5048165;28;20252;-52
2022/12/31 03:37:45;;;;;;;1999.90;677.00;;;12.10;99.90;;;;;;5048206;28;20197;-51
2022/12/31 03:40:14;;;;;;;1999.90;473.87;;;12.10;99.90;;;;;;5046513;28;20740;-53
2022/12/31 03:42:42;;;;;;;1999.90;320.70;;;12.10;99.90;;;;;;5047024;28;20289;-52
2022/12/31 03:45:12;;;;;;;1999.90;377.77;;;12.10;99.90;;;;;;5047713;28;20256;-52
2022/12/31 03:47:40;;;;;;;1999.90;471.37;;;12.10;99.90;;;;;;5047079;28;20683;-51
2022/12/31 03:50:09;;;;;;;1999.90;586.20;;;12.10;99.90;;;;;;5047835;28;20682;-51
2022/12/31 03:52:39;;;;;;;1999.90;597.40;;;12.20;99.90;;;;;;5047355;28;20624;-51
2022/12/31 03:55:09;;;;;;;1999.90;778.03;;;12.20;99.90;;;;;;5048277;28;20238;-51
2022/12/31 03:57:37;;;;;;;1999.90;797.97;;;12.20;99.90;;;;;;5047613;28;20244;-51
2022/12/31 04:00:08;;;;;;;1999.90;622.47;;;12.30;99.90;;;;;;5047938;28;20624;-52
2022/12/31 04:02:36;;;;;;;1999.90;500.17;;;12.30;99.90;;;;;;5047405;28;20241;-52
2022/12/31 04:05:06;;;;;;;1999.90;661.63;;;12.30;99.90;;;;;;5047097;28;20230;-52
2022/12/31 04:07:34;;;;;;;1999.90;308.77;;;12.30;99.90;;;;;;5048491;28;20209;-51
2022/12/31 04:10:04;;;;;;;1999.90;532.63;;;12.30;99.90;;;;;;5048262;28;20255;-53
2022/12/31 04:12:33;;;;;;;1999.90;606.73;;;12.30;99.90;;;;;;5048416;28;20618;-52
2022/12/31 04:15:01;;;;;;;1999.90;355.80;;;12.30;99.90;;;;;;5048251;28;20248;-52
2022/12/31 04:17:29;;;;;;;1999.90;444.53;;;12.40;99.90;;;;;;5047771;28;20214;-51
2022/12/31 04:19:57;;;;;;;1999.90;728.03;;;12.40;99.90;;;;;;5048511;28;20240;-50
2022/12/31 04:22:25;;;;;;;1999.90;539.77;;;12.40;99.90;;;;;;5049231;28;20233;-51
2022/12/31 04:24:53;;;;;;;1999.90;405.90;;;12.40;99.90;;;;;;5051853;28;20279;-52
2022/12/31 04:27:23;;;;;;;1999.90;561.83;;;12.50;99.90;;;;;;5051928;28;20284;-51
2022/12/31 04:29:51;;;;;;;1999.90;636.07;;;12.50;99.90;;;;;;5050849;28;20255;-53
2022/12/31 04:32:19;;;;;;;1999.90;715.93;;;12.50;99.90;;;;;;5051676;28;20206;-51
2022/12/31 04:34:47;;;;;;;1999.90;567.20;;;12.50;99.90;;;;;;5051634;28;20666;-52
2022/12/31 04:37:15;;;;;;;1999.90;808.77;;;12.50;99.90;;;;;;5051612;28;20209;-51
2022/12/31 04:39:43;;;;;;;1999.90;785.47;;;12.50;99.90;;;;;;5051188;28;20256;-52
2022/12/31 04:42:11;;;;;;;1999.90;645.80;;;12.60;99.90;;;;;;5051583;28;20229;-52
2022/12/31 04:44:41;;;;;;;1999.90;544.27;;;12.70;99.90;;;;;;5051434;28;20261;-51
2022/12/31 04:47:09;;;;;;;1999.90;645.20;;;12.70;99.90;;;;;;5051550;28;20292;-51
2022/12/31 04:49:37;;;;;;;1999.90;637.67;;;12.60;99.90;;;;;;5049844;28;20267;-52
2022/12/31 04:52:05;;;;;;;1999.90;516.60;;;12.60;99.90;;;;;;5049814;28;20793;-51
2022/12/31 04:54:33;;;;;;;1999.90;631.97;;;12.70;99.90;;;;;;5050310;28;20282;-52
2022/12/31 04:57:01;;;;;;;1999.90;418.03;;;12.70;99.90;;;;;;5050154;28;20267;-52
2022/12/31 04:59:29;;;;;;;1999.90;501.93;;;12.70;99.90;;;;;;5050298;28;20209;-52
2022/12/31 05:01:58;;;;;;;1999.90;559.37;;;12.60;99.90;;;;;;5051290;28;20240;-51
2022/12/31 05:04:27;;;;;;;1999.90;616.30;;;12.60;99.90;;;;;;5049783;28;20295;-50
2022/12/31 05:06:55;;;;;;;1999.90;598.00;;;12.60;99.90;;;;;;5051323;28;20263;-51
2022/12/31 05:09:26;;;;;;;1999.90;448.40;;;12.60;99.90;;;;;;5049144;28;20295;-51
2022/12/31 05:11:54;;;;;;;1999.90;725.47;;;12.70;99.90;;;;;;5050997;28;20202;-51
2022/12/31 05:14:22;;;;;;;1999.90;395.00;;;12.70;99.90;;;;;;5050577;28;20316;-52
2022/12/31 05:16:50;;;;;;;1999.90;613.13;;;12.70;99.90;;;;;;5050457;28;20296;-52
2022/12/31 05:19:20;;;;;;;1999.90;626.73;;;12.70;99.90;;;;;;5050577;28;20797;-52
2022/12/31 05:22:27;;;;;;;1999.90;436.07;;;12.70;99.90;;;;;;5041118;28;20663;-51
2022/12/31 05:24:36;;;;;;;1999.90;587.50;;;12.70;99.90;;;;;;5050292;28;20299;-51
2022/12/31 05:27:04;;;;;;;1999.90;705.40;;;12.70;99.90;;;;;;5050624;28;20198;-51
2022/12/31 05:29:33;;;;;;;1999.90;476.20;;;12.70;99.90;;;;;;5050097;28;20259;-52
2022/12/31 05:32:01;;;;;;;1999.90;617.73;;;12.70;99.90;;;;;;5049363;28;20206;-51
2022/12/31 05:34:30;;;;;;;1999.90;583.17;;;12.70;99.90;;;;;;5049878;28;20309;-51
2022/12/31 05:36:58;;;;;;;1999.90;614.57;;;12.70;99.90;;;;;;5050664;28;20776;-51
2022/12/31 05:39:26;;;;;;;1999.90;672.90;;;12.70;99.90;;;;;;5050628;28;20296;-51
2022/12/31 05:41:54;;;;;;;1999.90;732.60;;;12.70;99.90;;;;;;5050725;28;20205;-51
2022/12/31 05:44:22;;;;;;;1999.90;396.13;;;12.70;99.90;;;;;;5050087;28;20291;-51
2022/12/31 05:46:50;;;;;;;1999.90;493.83;;;12.70;99.90;;;;;;5050430;28;20271;-52
2022/12/31 05:49:18;;;;;;;1999.90;679.43;;;12.80;99.90;;;;;;5050216;28;20229;-51
2022/12/31 05:51:48;;;;;;;1999.90;692.67;;;12.80;99.90;;;;;;5050504;28;20209;-51
2022/12/31 05:54:16;;;;;;;1999.90;742.13;;;12.80;99.90;;;;;;5049943;28;20206;-52
2022/12/31 05:56:44;;;;;;;1999.90;741.13;;;12.90;99.90;;;;;;5050106;28;20275;-51
2022/12/31 05:59:12;;;;;;;1999.90;439.10;;;12.80;99.90;;;;;;5049677;28;20260;-52
2022/12/31 06:01:40;;;;;;;1984.57;321.47;;;12.90;99.90;;;;;;5048503;28;20628;-51
2022/12/31 06:04:09;;;;;;;1999.90;466.13;;;12.90;99.90;;;;;;5048273;28;20230;-52
2022/12/31 06:06:37;;;;;;;1999.90;839.97;;;13.00;99.90;;;;;;5043496;28;20234;-51
2022/12/31 06:09:06;;;;;;;1999.90;831.03;;;12.90;99.90;;;;;;5042977;28;20676;-50
2022/12/31 06:11:34;;;;;;;1999.90;380.00;;;13.00;99.90;;;;;;5049684;28;20259;-51
2022/12/31 06:14:03;;;;;;;1999.90;780.20;;;13.00;99.90;;;;;;5049505;28;20292;-51
2022/12/31 06:16:31;;;;;;;1999.90;758.03;;;13.00;99.90;;;;;;5049456;28;20267;-52
2022/12/31 06:19:00;;;;;;;1999.90;592.13;;;13.00;99.90;;;;;;5049982;28;20213;-52
2022/12/31 06:21:29;;;;;;;1999.90;527.07;;;13.10;99.90;;;;;;5049618;28;20241;-53
2022/12/31 06:23:57;;;;;;;1999.90;584.50;;;13.10;99.90;;;;;;5049450;28;20288;-52
2022/12/31 06:26:27;;;;;;;1999.90;567.40;;;13.10;99.90;;;;;;5049458;28;20206;-51
2022/12/31 06:28:55;;;;;;;1999.90;599.27;;;13.20;99.90;;;;;;5039493;28;20275;-51
2022/12/31 06:31:23;;;;;;;1999.90;631.80;;;13.20;99.90;;;;;;5045310;28;20206;-52
2022/12/31 06:33:51;;;;;;;1999.90;548.23;;;13.20;99.90;;;;;;5049478;28;20241;-51
2022/12/31 06:36:21;;;;;;;1999.90;631.13;;;13.30;99.90;;;;;;5049306;28;20264;-51
2022/12/31 06:38:49;;;;;;;1999.90;565.23;;;13.30;99.90;;;;;;5049570;28;20308;-51
2022/12/31 06:41:18;;;;;;;1999.90;842.53;;;13.30;99.90;;;;;;5047238;28;20209;-52
2022/12/31 06:43:47;;;;;;;1999.90;432.40;;;13.30;99.90;;;;;;5047148;28;20201;-51
2022/12/31 06:46:17;;;;;;;1999.90;885.37;;;13.30;99.90;;;;;;5046080;28;20233;-51
2022/12/31 06:48:45;;;;;;;1999.90;815.20;;;13.30;99.90;;;;;;5049629;28;20267;-52
2022/12/31 06:51:16;;;;;;;1999.90;682.93;;;13.30;99.90;;;;;;5035652;28;20204;-52
2022/12/31 06:53:45;;;;;;;1999.90;915.40;;;13.30;99.90;;;;;;5049054;28;20209;-52
2022/12/31 06:56:16;;;;;;;1999.90;653.90;;;13.30;99.90;;;;;;5047648;28;20288;-52
2022/12/31 06:58:47;;;;;;;1999.90;405.70;;;13.30;99.90;;;;;;5049203;28;20198;-52
2022/12/31 07:01:36;;;;;;;1999.90;729.20;;;13.40;99.90;;;;;;5048238;28;20232;-52
2022/12/31 07:04:28;;;;;;;1999.90;686.47;;;13.40;99.90;;;;;;5048229;28;20241;-52
2022/12/31 07:07:05;;;;;;;1999.90;772.53;;;13.40;99.90;;;;;;5048258;28;20271;-52
2022/12/31 07:09:39;;;;;;;1999.90;447.90;;;13.40;99.90;;;;;;5048272;28;20329;-52
2022/12/31 07:12:18;;;;;;;1999.90;650.73;;;13.50;99.90;;;;;;5047820;28;20237;-53
2022/12/31 07:14:54;;;;;;;1999.90;638.10;;;13.50;99.90;;;;;;5048331;28;20271;-51
2022/12/31 07:17:31;;;;;;;1999.90;399.10;;;13.60;99.90;;;;;;5037860;28;20617;-52
2022/12/31 07:20:03;;;;;;;1999.90;377.90;;;13.60;99.90;;;;;;5030881;28;20194;-52
2022/12/31 07:22:32;;;;;;;1999.90;625.37;;;13.60;99.90;;;;;;5029287;28;20206;-51
2022/12/31 07:25:00;;;;;;;1999.90;618.20;;;13.60;99.90;;;;;;5039711;28;20385;-52
2022/12/31 07:27:57;;;;;;;1999.90;672.05;;;13.70;99.90;;;;;;5047836;28;20292;-52
2022/12/31 07:30:35;;;;;;;1999.90;743.37;;;13.60;99.90;;;;;;5047225;28;20206;-52
2022/12/31 07:33:25;;;;;;;1999.90;573.30;;;13.70;99.90;;;;;;5047797;28;20209;-52
2022/12/31 07:36:03;;;;;;;1999.90;715.67;;;13.70;99.90;;;;;;5048103;28;20306;-52
2022/12/31 07:38:40;;;;;;;1999.90;354.10;;;13.70;99.90;;;;;;5047811;28;20653;-51
2022/12/31 07:41:14;;;;;;;1999.90;951.63;;;13.70;99.90;;;;;;5048268;28;20243;-52
2022/12/31 07:43:56;;;;;;;1999.90;433.53;;;13.70;99.90;;;;;;5048698;28;20213;-52
2022/12/31 07:46:35;;;;;;;1999.90;432.67;;;13.70;99.90;;;;;;5047655;28;20229;-52
2022/12/31 07:49:04;;;;;;;1999.90;845.23;;;13.70;99.90;;;;;;5048919;28;20259;-52
2022/12/31 07:51:32;;;;;;;1999.90;564.53;;;13.70;99.90;;;;;;5047663;28;20244;-52
2022/12/31 07:54:00;;;;;;;1999.90;816.20;;;13.70;99.90;;;;;;5048186;28;20439;-52
2022/12/31 07:56:30;;;;;;;1999.90;433.60;;;13.70;99.90;;;;;;5033384;28;20245;-52
2022/12/31 07:59:07;;;;;;;1999.90;460.27;;;13.80;99.90;;;;;;5044905;28;20237;-51
2022/12/31 08:01:46;;;;;;;1999.90;698.57;;;13.80;99.90;;;;;;5052228;28;20667;-51
2022/12/31 08:04:26;;;;;;;1999.90;461.33;;;13.80;99.90;;;;;;5051380;28;20209;-52
2022/12/31 08:07:03;;;;;;;1999.90;312.07;;;13.80;99.90;;;;;;5051322;28;20267;-52
2022/12/31 08:09:44;;;;;;;1999.90;524.40;;;13.80;99.90;;;;;;5051082;28;20221;-51
2022/12/31 08:12:12;;;;;;;1999.90;449.10;;;13.80;99.90;;;;;;5042051;28;20209;-52
2022/12/31 08:14:45;;;;;;;1999.90;548.07;;;13.80;99.90;;;;;;5042216;28;20222;-52
2022/12/31 08:17:16;;;;;;;1999.90;530.70;;;13.80;99.90;;;;;;5041225;28;20720;-51
2022/12/31 08:19:46;;;;;;;1999.90;370.70;;;13.80;99.90;;;;;;5051787;28;21040;-52
2022/12/31 08:22:36;;;;;;;1999.90;635.63;;;13.80;99.90;;;;;;5051281;28;20271;-52
2022/12/31 08:25:14;;;;;;;1999.90;572.73;;;13.90;99.90;;;;;;5049924;28;20623;-52
2022/12/31 08:27:50;;;;;;;1807.93;250.67;;;13.90;99.90;;;;;;5045012;28;20213;-51
2022/12/31 08:30:21;;;;;;;1999.90;431.80;;;14.00;99.90;;;;;;5038354;28;20239;-52
2022/12/31 08:33:00;;;;;;;1999.90;606.63;;;14.00;99.90;;;;;;5035179;28;20252;-52
2022/12/31 08:35:36;;;;;;;1999.90;804.33;;;14.00;99.90;;;;;;5033296;28;20226;-52
2022/12/31 08:38:17;;;;;;;1999.90;455.93;;;14.00;99.90;;;;;;5035218;28;20289;-52
2022/12/31 08:40:53;;;;;;;1999.90;425.20;;;14.10;99.90;;;;;;5037454;28;20245;-52
2022/12/31 08:43:35;;;;;;;1999.90;565.03;;;14.10;99.90;;;;;;5041156;28;20202;-51
2022/12/31 08:46:15;;;;;;;1935.30;303.23;;;14.20;99.90;;;;;;5039191;28;20279;-52
2022/12/31 08:48:47;;;;;;;1999.90;618.00;;;14.20;99.90;;;;;;5043323;28;20208;-52
2022/12/31 08:51:19;;;;;;;1999.90;423.40;;;14.20;99.90;;;;;;5046161;28;20263;-51
2022/12/31 08:53:48;;;;;;;1999.90;398.93;;;14.30;99.90;;;;;;5037128;28;20297;-51
2022/12/31 08:56:26;;;;;;;1999.90;384.83;;;14.30;99.90;;;;;;5034794;28;20283;-51
2022/12/31 08:59:03;;;;;;;1999.90;411.57;;;14.30;99.90;;;;;;5037895;28;20616;-51
2022/12/31 09:01:40;;;;;;;1999.90;465.70;;;14.30;99.90;;;;;;5041247;28;20591;-52
2022/12/31 09:04:20;;;;;;;1999.90;610.30;;;14.30;99.90;;;;;;5044529;28;20210;-52
2022/12/31 09:06:54;;;;;;;1999.90;550.70;;;14.30;99.90;;;;;;5048384;28;20255;-51
2022/12/31 09:09:32;;;;;;;1999.90;472.83;;;14.40;99.90;;;;;;5048784;28;20290;-52
2022/12/31 09:12:08;;;;;;;1999.90;550.67;;;14.40;99.90;;;;;;5048862;28;20251;-51
2022/12/31 09:14:46;;;;;;;1999.90;429.55;;;14.30;99.90;;;;;;5049561;28;20229;-52
2022/12/31 09:17:39;;;;;;;1999.90;339.87;;;14.30;99.90;;;;;;5044451;28;20241;-51
2022/12/31 09:20:16;;;;;;;1999.90;594.97;;;14.40;99.90;;;;;;5042311;28;20202;-52
2022/12/31 09:22:45;;;;;;;1999.90;567.93;;;14.40;99.90;;;;;;5050645;28;20251;-52
2022/12/31 09:25:15;;;;;;;1999.90;575.13;;;14.40;99.90;;;;;;5050740;28;20233;-51
2022/12/31 09:27:49;;;;;;;1999.90;884.47;;;14.40;99.90;;;;;;5048326;28;20230;-51
2022/12/31 09:30:18;;;;;;;1999.90;697.27;;;14.40;99.90;;;;;;5048885;28;20211;-51
2022/12/31 09:32:54;;;;;;;1087.45;145.27;;;14.50;99.90;;;;;;5048746;28;20213;-51
2022/12/31 09:35:36;;;;;;;1999.90;411.23;;;14.50;99.90;;;;;;5048326;28;20226;-52
2022/12/31 09:38:11;;;;;;;1999.90;782.50;;;14.40;99.90;;;;;;5048262;28;20209;-52
2022/12/31 09:40:54;;;;;;;1999.90;921.50;;;14.40;99.90;;;;;;5048411;28;20209;-51
2022/12/31 09:44:04;;;;;;;1999.90;701.93;;;14.50;99.90;;;;;;5045450;28;20292;-53
2022/12/31 09:47:09;;;;;;;1999.90;457.13;;;14.40;99.90;;;;;;5039466;28;20314;-52
2022/12/31 09:50:06;;;;;;;1999.90;972.03;;;14.50;99.90;;;;;;5049808;28;20237;-51
2022/12/31 09:52:51;;;;;;;1999.90;513.93;;;14.70;99.90;;;;;;5049743;28;20296;-52
2022/12/31 09:55:37;;;;;;;1999.90;596.00;;;14.60;99.90;;;;;;5050181;28;20295;-51
2022/12/31 09:58:22;;;;;;;1999.90;785.80;;;14.70;99.90;;;;;;5036715;28;20202;-51
2022/12/31 10:00:55;;;;;;;1999.90;508.87;;;14.60;99.90;;;;;;5049017;28;20245;-52
2022/12/31 10:03:53;;;;;;;1999.90;602.83;;;14.60;99.90;;;;;;5049930;28;20197;-52
2022/12/31 10:06:25;;;;;;;1999.90;640.53;;;14.60;99.90;;;;;;5048438;28;20271;-51
2022/12/31 10:09:12;;;;;;;1999.90;627.42;;;14.70;99.90;;;;;;5049249;28;20481;-52
2022/12/31 10:12:04;;;;;;;1999.90;792.75;;;14.60;99.90;;;;;;5036812;28;20260;-52
2022/12/31 10:14:50;;;;;;;1999.90;634.33;;;14.70;99.90;;;;;;5049505;28;20314;-51
2022/12/31 10:17:29;;;;;;;1999.90;751.07;;;14.80;99.90;;;;;;5049576;28;20567;-51
2022/12/31 10:20:24;;;;;;;1999.90;519.15;;;14.80;99.90;;;;;;5048543;28;20201;-51
2022/12/31 10:23:17;;;;;;;1999.90;750.43;;;14.80;99.90;;;;;;5048515;28;20295;-51
2022/12/31 10:26:08;;;;;;;1999.90;891.20;;;14.80;99.90;;;;;;5049476;28;20311;-52
2022/12/31 10:28:44;;;;;;;1999.90;629.73;;;14.90;99.90;;;;;;5049663;28;20237;-52
2022/12/31 10:31:15;;;;;;;1999.90;909.30;;;14.90;99.90;;;;;;5049584;28;20628;-51
2022/12/31 10:33:51;;;;;;;1999.90;465.10;;;14.90;99.90;;;;;;5049298;28;20417;-51
2022/12/31 10:36:26;;;;;;;1999.90;991.23;;;14.90;99.90;;;;;;5049169;28;20229;-52
2022/12/31 10:39:08;;;;;;;1999.90;706.30;;;14.90;99.90;;;;;;5049011;28;20293;-52
2022/12/31 10:42:12;;;;;;;1999.90;920.60;;;15.00;99.90;;;;;;5048794;28;20671;-51
2022/12/31 10:45:25;;;;;;;1999.90;564.03;;;15.10;99.90;;;;;;5037497;28;20264;-52
2022/12/31 10:48:23;;;;;;;1999.90;768.42;;;15.10;99.90;;;;;;5035193;28;20957;-52
2022/12/31 10:51:08;;;;;;;1999.90;599.58;;;15.10;99.90;;;;;;5027110;28;20259;-52
2022/12/31 10:54:00;;;;;;;1999.90;814.97;;;15.20;99.90;;;;;;5049084;28;20263;-52
2022/12/31 10:57:09;;;;;;;1999.90;817.10;;;15.20;99.90;;;;;;5049259;28;20213;-51
2022/12/31 11:00:09;;;;;;;1999.90;523.33;;;15.20;99.90;;;;;;5038637;28;20263;-52
2022/12/31 11:03:17;;;;;;;1999.90;684.10;;;15.20;99.90;;;;;;5048868;28;20256;-52
2022/12/31 11:06:54;;;;;;;1999.90;834.22;;;15.30;99.90;;;;;;5048916;28;20233;-51
2022/12/31 11:09:51;;;;;;;1999.90;659.55;;;15.30;99.90;;;;;;5044259;28;20221;-51
2022/12/31 11:12:48;;;;;;;1999.90;639.75;;;15.20;99.90;;;;;;5048622;28;20732;-51
2022/12/31 11:15:38;;;;;;;1999.90;635.95;;;15.40;99.90;;;;;;5048551;28;20714;-50
2022/12/31 11:18:15;;;;;;;1999.90;931.58;;;15.30;99.90;;;;;;5040568;28;20623;-52
2022/12/31 11:20:59;;;;;;;1999.90;615.17;;;15.30;99.90;;;;;;5044106;28;20559;-53
2022/12/31 11:23:37;;;;;;;1999.90;519.83;;;15.30;99.90;;;;;;5048638;28;20701;-52
2022/12/31 11:26:15;;;;;;;1999.90;585.25;;;15.30;99.90;;;;;;5048414;28;20412;-52
2022/12/31 11:29:00;;;;;;;1999.90;569.58;;;15.40;99.90;;;;;;5036931;28;20257;-52
2022/12/31 11:31:42;;;;;;;1999.90;720.85;;;15.40;99.90;;;;;;5044267;28;20690;-51
2022/12/31 11:34:24;;;;;;;1999.90;687.15;;;15.50;99.90;;;;;;5040656;28;20252;-53
2022/12/31 11:37:10;;;;;;;1999.90;676.78;;;15.50;99.90;;;;;;5036909;28;20210;-51
2022/12/31 11:39:48;;;;;;;1999.90;765.22;;;15.50;99.90;;;;;;5038298;28;20229;-52
2022/12/31 11:42:21;;;;;;;1999.90;919.80;;;15.60;99.90;;;;;;5047865;28;20682;-52
2022/12/31 11:44:57;;;;;;;1999.90;590.28;;;15.70;99.90;;;;;;5048258;28;20266;-51
2022/12/31 11:47:50;;;;;;;1999.90;772.85;;;15.70;99.90;;;;;;5050401;28;20733;-51
2022/12/31 11:50:44;;;;;;;1999.90;647.70;;;15.60;99.90;;;;;;5047059;28;20917;-52
2022/12/31 11:53:29;;;;;;;1999.90;791.85;;;15.70;99.90;;;;;;5052421;28;20228;-52
2022/12/31 11:56:06;;;;;;;1999.90;744.92;;;15.70;99.90;;;;;;5052332;28;20283;-51
2022/12/31 11:58:34;;;;;;;1999.90;838.42;;;15.70;99.90;;;;;;5051767;28;20297;-51
2022/12/31 12:01:10;;;;;;;1999.90;725.83;;;15.70;99.90;;;;;;5051975;28;20255;-51
2022/12/31 12:03:47;;;;;;;1999.90;637.70;;;15.70;99.90;;;;;;5050766;28;20208;-51
2022/12/31 12:06:25;;;;;;;1999.90;587.38;;;15.80;99.90;;;;;;5041466;28;20221;-52
2022/12/31 12:08:59;;;;;;;1999.90;996.50;;;15.80;99.90;;;;;;5051200;28;20263;-52
2022/12/31 12:11:31;;;;;;;1999.90;838.53;;;15.90;99.90;;;;;;5048089;28;20241;-52
2022/12/31 12:13:59;;;;;;;1999.90;960.78;;;15.80;99.90;;;;;;5042682;28;20633;-52
2022/12/31 12:16:28;;;;;;;1999.90;643.13;;;15.80;99.90;;;;;;5050290;28;20237;-53
2022/12/31 12:19:07;;;;;;;1999.90;683.60;;;15.80;99.90;;;;;;5051303;28;20225;-51
2022/12/31 12:21:45;;;;;;;1999.90;829.25;;;15.80;99.90;;;;;;5047417;28;20292;-52
2022/12/31 12:24:19;;;;;;;1999.90;962.88;;;15.80;99.90;;;;;;5046846;28;20232;-51
2022/12/31 12:26:48;;;;;;;1999.90;879.63;;;15.80;99.90;;;;;;5050091;28;20247;-52
2022/12/31 12:29:19;;;;;;;1999.90;999.90;;;15.90;99.90;;;;;;5051508;28;20230;-53
2022/12/31 12:31:58;;;;;;;1999.90;623.55;;;15.90;99.90;;;;;;5043300;28;20221;-52
2022/12/31 12:34:30;;;;;;;1999.90;935.70;;;15.90;99.90;;;;;;5049173;28;20298;-52
2022/12/31 12:36:59;;;;;;;1999.90;567.67;;;15.90;99.90;;;;;;5049754;28;20208;-51
2022/12/31 12:39:30;;;;;;;1999.90;909.60;;;15.90;99.90;;;;;;5043331;28;20912;-52
2022/12/31 12:42:03;;;;;;;1999.90;728.50;;;16.00;99.90;;;;;;5048344;28;20209;-53
2022/12/31 12:44:32;;;;;;;1999.90;636.95;;;15.90;99.90;;;;;;5048175;28;20730;-51
2022/12/31 12:47:02;;;;;;;1999.90;572.13;;;15.80;99.90;;;;;;5044505;28;20297;-52
2022/12/31 12:49:38;;;;;;;1999.90;999.90;;;15.90;99.90;;;;;;5048975;28;20320;-52
2022/12/31 12:52:37;;;;;;;1999.90;649.10;;;15.90;99.90;;;;;;5048673;28;20198;-52